sensor_id;sensor_type;location;lat;lon;timestamp;P1;durP1;ratioP1;P2;durP2;ratioP2
2123;SDS011;1068;52.460;13.528;2023-08-21T00:01:03;8.10;;;7.40;;
2123;SDS011;1068;52.460;13.528;2023-08-21T00:03:30;7.73;;;7.13;;
2123;SDS011;1068;52.460;13.528;2023-08-21T00:05:56;8.20;;;7.50;;
2123;SDS011;1068;52.460;13.528;2023-08-21T00:08:23;7.60;;;7.00;;
2123;SDS011;1068;52.460;13.528;2023-08-21T00:10:50;8.00;;;7.20;;
2123;SDS011;1068;52.460;13.528;2023-08-21T00:13:17;8.07;;;7.33;;
2123;SDS011;1068;52.460;13.528;2023-08-21T00:15:44;7.50;;;7.00;;
2123;SDS011;1068;52.460;13.528;2023-08-21T00:18:13;8.37;;;7.67;;
2123;SDS011;1068;52.460;13.528;2023-08-21T00:20:39;8.30;;;7.60;;
2123;SDS011;1068;52.460;13.528;2023-08-21T00:23:07;9.20;;;7.47;;
2123;SDS011;1068;52.460;13.528;2023-08-21T00:25:34;8.30;;;7.50;;
2123;SDS011;1068;52.460;13.528;2023-08-21T00:28:01;8.50;;;7.70;;
2123;SDS011;1068;52.460;13.528;2023-08-21T00:30:28;8.50;;;7.80;;
2123;SDS011;1068;52.460;13.528;2023-08-21T00:32:55;9.50;;;7.90;;
2123;SDS011;1068;52.460;13.528;2023-08-21T00:35:23;11.17;;;7.33;;
2123;SDS011;1068;52.460;13.528;2023-08-21T00:37:50;10.00;;;8.07;;
2123;SDS011;1068;52.460;13.528;2023-08-21T00:40:17;8.80;;;8.00;;
2123;SDS011;1068;52.460;13.528;2023-08-21T00:42:44;8.30;;;7.60;;
2123;SDS011;1068;52.460;13.528;2023-08-21T00:45:11;7.33;;;6.80;;
2123;SDS011;1068;52.460;13.528;2023-08-21T00:47:38;8.30;;;7.60;;
2123;SDS011;1068;52.460;13.528;2023-08-21T00:50:06;8.83;;;8.00;;
2123;SDS011;1068;52.460;13.528;2023-08-21T00:52:34;8.87;;;8.00;;
2123;SDS011;1068;52.460;13.528;2023-08-21T00:55:02;7.77;;;7.23;;
2123;SDS011;1068;52.460;13.528;2023-08-21T00:57:29;7.97;;;7.37;;
2123;SDS011;1068;52.460;13.528;2023-08-21T00:59:56;7.77;;;7.13;;
2123;SDS011;1068;52.460;13.528;2023-08-21T01:02:23;8.10;;;7.40;;
2123;SDS011;1068;52.460;13.528;2023-08-21T01:04:50;11.43;;;7.60;;
2123;SDS011;1068;52.460;13.528;2023-08-21T01:07:17;8.33;;;7.50;;
2123;SDS011;1068;52.460;13.528;2023-08-21T01:09:46;8.43;;;7.73;;
2123;SDS011;1068;52.460;13.528;2023-08-21T01:12:17;10.10;;;7.67;;
2123;SDS011;1068;52.460;13.528;2023-08-21T01:14:50;9.13;;;8.33;;
2123;SDS011;1068;52.460;13.528;2023-08-21T01:17:18;7.40;;;6.80;;
2123;SDS011;1068;52.460;13.528;2023-08-21T01:19:46;8.40;;;7.70;;
2123;SDS011;1068;52.460;13.528;2023-08-21T01:22:14;8.60;;;7.80;;
2123;SDS011;1068;52.460;13.528;2023-08-21T01:24:42;8.97;;;8.13;;
2123;SDS011;1068;52.460;13.528;2023-08-21T01:27:09;8.03;;;7.23;;
2123;SDS011;1068;52.460;13.528;2023-08-21T01:29:37;9.07;;;8.37;;
2123;SDS011;1068;52.460;13.528;2023-08-21T01:32:06;8.67;;;7.97;;
2123;SDS011;1068;52.460;13.528;2023-08-21T01:34:33;8.97;;;8.17;;
2123;SDS011;1068;52.460;13.528;2023-08-21T01:37:00;9.07;;;8.27;;
2123;SDS011;1068;52.460;13.528;2023-08-21T01:39:27;8.23;;;7.63;;
2123;SDS011;1068;52.460;13.528;2023-08-21T01:41:56;9.23;;;8.37;;
2123;SDS011;1068;52.460;13.528;2023-08-21T01:44:23;8.73;;;7.83;;
2123;SDS011;1068;52.460;13.528;2023-08-21T01:46:51;10.17;;;9.17;;
2123;SDS011;1068;52.460;13.528;2023-08-21T01:49:18;9.07;;;8.20;;
2123;SDS011;1068;52.460;13.528;2023-08-21T01:51:45;8.47;;;7.67;;
2123;SDS011;1068;52.460;13.528;2023-08-21T01:54:12;8.70;;;7.90;;
2123;SDS011;1068;52.460;13.528;2023-08-21T01:56:39;8.57;;;7.77;;
2123;SDS011;1068;52.460;13.528;2023-08-21T01:59:07;9.43;;;8.33;;
2123;SDS011;1068;52.460;13.528;2023-08-21T02:01:34;9.10;;;8.10;;
2123;SDS011;1068;52.460;13.528;2023-08-21T02:04:00;9.03;;;8.30;;
2123;SDS011;1068;52.460;13.528;2023-08-21T02:06:27;9.00;;;8.30;;
2123;SDS011;1068;52.460;13.528;2023-08-21T02:08:54;7.87;;;7.17;;
2123;SDS011;1068;52.460;13.528;2023-08-21T02:11:21;10.03;;;8.90;;
2123;SDS011;1068;52.460;13.528;2023-08-21T02:13:48;9.63;;;8.47;;
2123;SDS011;1068;52.460;13.528;2023-08-21T02:16:16;8.57;;;7.70;;
2123;SDS011;1068;52.460;13.528;2023-08-21T02:18:43;8.67;;;8.07;;
2123;SDS011;1068;52.460;13.528;2023-08-21T02:21:10;8.23;;;7.40;;
2123;SDS011;1068;52.460;13.528;2023-08-21T02:23:37;8.90;;;8.10;;
2123;SDS011;1068;52.460;13.528;2023-08-21T02:26:04;9.80;;;9.03;;
2123;SDS011;1068;52.460;13.528;2023-08-21T02:28:31;9.23;;;8.33;;
2123;SDS011;1068;52.460;13.528;2023-08-21T02:30:57;9.60;;;8.77;;
2123;SDS011;1068;52.460;13.528;2023-08-21T02:33:26;9.27;;;8.30;;
2123;SDS011;1068;52.460;13.528;2023-08-21T02:35:53;9.37;;;8.53;;
2123;SDS011;1068;52.460;13.528;2023-08-21T02:38:19;9.80;;;8.80;;
2123;SDS011;1068;52.460;13.528;2023-08-21T02:40:46;8.77;;;7.97;;
2123;SDS011;1068;52.460;13.528;2023-08-21T02:43:14;11.80;;;10.60;;
2123;SDS011;1068;52.460;13.528;2023-08-21T02:45:41;9.00;;;8.20;;
2123;SDS011;1068;52.460;13.528;2023-08-21T02:48:08;10.67;;;7.83;;
2123;SDS011;1068;52.460;13.528;2023-08-21T02:50:36;8.53;;;7.83;;
2123;SDS011;1068;52.460;13.528;2023-08-21T02:53:03;8.03;;;7.30;;
2123;SDS011;1068;52.460;13.528;2023-08-21T02:55:30;9.30;;;8.60;;
2123;SDS011;1068;52.460;13.528;2023-08-21T02:57:57;9.63;;;8.87;;
2123;SDS011;1068;52.460;13.528;2023-08-21T03:00:23;10.73;;;9.73;;
2123;SDS011;1068;52.460;13.528;2023-08-21T03:02:50;9.17;;;8.47;;
2123;SDS011;1068;52.460;13.528;2023-08-21T03:05:17;9.77;;;8.73;;
2123;SDS011;1068;52.460;13.528;2023-08-21T03:07:45;8.60;;;7.87;;
2123;SDS011;1068;52.460;13.528;2023-08-21T03:10:12;9.17;;;8.47;;
2123;SDS011;1068;52.460;13.528;2023-08-21T03:12:39;8.27;;;7.47;;
2123;SDS011;1068;52.460;13.528;2023-08-21T03:15:06;8.23;;;7.47;;
2123;SDS011;1068;52.460;13.528;2023-08-21T03:17:33;9.80;;;8.83;;
2123;SDS011;1068;52.460;13.528;2023-08-21T03:20:00;9.90;;;9.10;;
2123;SDS011;1068;52.460;13.528;2023-08-21T03:22:29;9.23;;;8.47;;
2123;SDS011;1068;52.460;13.528;2023-08-21T03:24:58;9.83;;;8.93;;
2123;SDS011;1068;52.460;13.528;2023-08-21T03:27:25;9.67;;;8.83;;
2123;SDS011;1068;52.460;13.528;2023-08-21T03:29:52;9.27;;;8.30;;
2123;SDS011;1068;52.460;13.528;2023-08-21T03:32:19;9.80;;;8.90;;
2123;SDS011;1068;52.460;13.528;2023-08-21T03:34:46;13.03;;;9.30;;
2123;SDS011;1068;52.460;13.528;2023-08-21T03:37:13;9.30;;;8.33;;
2123;SDS011;1068;52.460;13.528;2023-08-21T03:39:40;10.17;;;9.37;;
2123;SDS011;1068;52.460;13.528;2023-08-21T03:42:08;9.20;;;8.50;;
2123;SDS011;1068;52.460;13.528;2023-08-21T03:44:37;8.57;;;7.80;;
2123;SDS011;1068;52.460;13.528;2023-08-21T03:47:04;10.33;;;8.57;;
2123;SDS011;1068;52.460;13.528;2023-08-21T03:49:31;8.57;;;7.80;;
2123;SDS011;1068;52.460;13.528;2023-08-21T03:51:58;9.20;;;8.50;;
2123;SDS011;1068;52.460;13.528;2023-08-21T03:54:25;8.70;;;7.90;;
2123;SDS011;1068;52.460;13.528;2023-08-21T03:56:51;9.37;;;8.60;;
2123;SDS011;1068;52.460;13.528;2023-08-21T03:59:20;9.00;;;8.20;;
2123;SDS011;1068;52.460;13.528;2023-08-21T04:01:48;8.60;;;7.80;;
2123;SDS011;1068;52.460;13.528;2023-08-21T04:04:15;9.63;;;8.63;;
2123;SDS011;1068;52.460;13.528;2023-08-21T04:06:42;9.23;;;8.13;;
2123;SDS011;1068;52.460;13.528;2023-08-21T04:09:09;9.03;;;8.13;;
2123;SDS011;1068;52.460;13.528;2023-08-21T04:11:36;8.87;;;8.07;;
2123;SDS011;1068;52.460;13.528;2023-08-21T04:14:03;10.60;;;9.40;;
2123;SDS011;1068;52.460;13.528;2023-08-21T04:16:31;9.00;;;8.20;;
2123;SDS011;1068;52.460;13.528;2023-08-21T04:18:58;9.73;;;8.87;;
2123;SDS011;1068;52.460;13.528;2023-08-21T04:21:25;8.40;;;7.70;;
2123;SDS011;1068;52.460;13.528;2023-08-21T04:23:52;9.60;;;8.80;;
2123;SDS011;1068;52.460;13.528;2023-08-21T04:26:19;10.27;;;8.80;;
2123;SDS011;1068;52.460;13.528;2023-08-21T04:28:46;11.60;;;9.00;;
2123;SDS011;1068;52.460;13.528;2023-08-21T04:31:13;10.77;;;9.63;;
2123;SDS011;1068;52.460;13.528;2023-08-21T04:33:41;10.23;;;9.33;;
2123;SDS011;1068;52.460;13.528;2023-08-21T04:36:13;10.57;;;9.47;;
2123;SDS011;1068;52.460;13.528;2023-08-21T04:38:40;9.30;;;8.40;;
2123;SDS011;1068;52.460;13.528;2023-08-21T04:41:07;10.97;;;9.47;;
2123;SDS011;1068;52.460;13.528;2023-08-21T04:43:34;10.13;;;9.23;;
2123;SDS011;1068;52.460;13.528;2023-08-21T04:46:02;10.87;;;9.73;;
2123;SDS011;1068;52.460;13.528;2023-08-21T04:48:28;9.17;;;8.43;;
2123;SDS011;1068;52.460;13.528;2023-08-21T04:50:57;11.67;;;10.03;;
2123;SDS011;1068;52.460;13.528;2023-08-21T04:53:23;11.87;;;8.53;;
2123;SDS011;1068;52.460;13.528;2023-08-21T04:55:50;8.70;;;7.97;;
2123;SDS011;1068;52.460;13.528;2023-08-21T04:58:17;9.10;;;8.40;;
2123;SDS011;1068;52.460;13.528;2023-08-21T05:00:44;10.07;;;9.00;;
2123;SDS011;1068;52.460;13.528;2023-08-21T05:03:11;10.67;;;9.67;;
2123;SDS011;1068;52.460;13.528;2023-08-21T05:05:38;10.00;;;8.97;;
2123;SDS011;1068;52.460;13.528;2023-08-21T05:08:06;10.53;;;9.50;;
2123;SDS011;1068;52.460;13.528;2023-08-21T05:10:33;9.77;;;8.87;;
2123;SDS011;1068;52.460;13.528;2023-08-21T05:13:00;8.10;;;7.40;;
2123;SDS011;1068;52.460;13.528;2023-08-21T05:15:27;12.50;;;9.40;;
2123;SDS011;1068;52.460;13.528;2023-08-21T05:17:54;8.70;;;8.00;;
2123;SDS011;1068;52.460;13.528;2023-08-21T05:20:21;11.80;;;8.80;;
2123;SDS011;1068;52.460;13.528;2023-08-21T05:22:48;8.40;;;7.70;;
2123;SDS011;1068;52.460;13.528;2023-08-21T05:25:16;7.70;;;7.00;;
2123;SDS011;1068;52.460;13.528;2023-08-21T05:27:43;8.67;;;7.90;;
2123;SDS011;1068;52.460;13.528;2023-08-21T05:30:10;7.70;;;7.10;;
2123;SDS011;1068;52.460;13.528;2023-08-21T05:32:38;8.90;;;8.00;;
2123;SDS011;1068;52.460;13.528;2023-08-21T05:35:05;8.73;;;7.83;;
2123;SDS011;1068;52.460;13.528;2023-08-21T05:37:33;7.63;;;7.03;;
2123;SDS011;1068;52.460;13.528;2023-08-21T05:40:01;8.50;;;7.70;;
2123;SDS011;1068;52.460;13.528;2023-08-21T05:42:29;8.10;;;7.50;;
2123;SDS011;1068;52.460;13.528;2023-08-21T05:44:56;8.60;;;7.90;;
2123;SDS011;1068;52.460;13.528;2023-08-21T05:47:23;8.27;;;7.57;;
2123;SDS011;1068;52.460;13.528;2023-08-21T05:49:51;7.97;;;7.27;;
2123;SDS011;1068;52.460;13.528;2023-08-21T05:52:19;8.67;;;7.97;;
2123;SDS011;1068;52.460;13.528;2023-08-21T05:54:46;9.47;;;8.57;;
2123;SDS011;1068;52.460;13.528;2023-08-21T05:57:13;7.70;;;7.10;;
2123;SDS011;1068;52.460;13.528;2023-08-21T05:59:44;7.17;;;6.57;;
2123;SDS011;1068;52.460;13.528;2023-08-21T06:02:11;9.60;;;7.47;;
2123;SDS011;1068;52.460;13.528;2023-08-21T06:04:39;6.80;;;6.17;;
2123;SDS011;1068;52.460;13.528;2023-08-21T06:07:06;9.23;;;8.10;;
2123;SDS011;1068;52.460;13.528;2023-08-21T06:09:33;9.10;;;8.30;;
2123;SDS011;1068;52.460;13.528;2023-08-21T06:12:00;10.77;;;8.30;;
2123;SDS011;1068;52.460;13.528;2023-08-21T06:14:28;7.83;;;7.13;;
2123;SDS011;1068;52.460;13.528;2023-08-21T06:16:56;8.90;;;8.10;;
2123;SDS011;1068;52.460;13.528;2023-08-21T06:19:23;7.90;;;7.20;;
2123;SDS011;1068;52.460;13.528;2023-08-21T06:21:50;7.90;;;7.20;;
2123;SDS011;1068;52.460;13.528;2023-08-21T06:24:17;7.67;;;7.07;;
2123;SDS011;1068;52.460;13.528;2023-08-21T06:26:44;7.40;;;6.80;;
2123;SDS011;1068;52.460;13.528;2023-08-21T06:29:11;7.83;;;7.13;;
2123;SDS011;1068;52.460;13.528;2023-08-21T06:31:38;9.60;;;7.63;;
2123;SDS011;1068;52.460;13.528;2023-08-21T06:34:06;7.20;;;6.70;;
2123;SDS011;1068;52.460;13.528;2023-08-21T06:36:33;8.50;;;7.70;;
2123;SDS011;1068;52.460;13.528;2023-08-21T06:39:00;8.37;;;7.47;;
2123;SDS011;1068;52.460;13.528;2023-08-21T06:41:28;8.30;;;7.23;;
2123;SDS011;1068;52.460;13.528;2023-08-21T06:43:55;7.13;;;6.53;;
2123;SDS011;1068;52.460;13.528;2023-08-21T06:46:22;7.50;;;6.87;;
2123;SDS011;1068;52.460;13.528;2023-08-21T06:48:49;8.53;;;7.93;;
2123;SDS011;1068;52.460;13.528;2023-08-21T06:51:17;7.63;;;6.93;;
2123;SDS011;1068;52.460;13.528;2023-08-21T06:53:44;7.60;;;7.00;;
2123;SDS011;1068;52.460;13.528;2023-08-21T06:56:11;7.30;;;6.60;;
2123;SDS011;1068;52.460;13.528;2023-08-21T06:58:38;8.33;;;6.97;;
2123;SDS011;1068;52.460;13.528;2023-08-21T07:01:05;6.50;;;5.90;;
2123;SDS011;1068;52.460;13.528;2023-08-21T07:03:32;7.07;;;6.37;;
2123;SDS011;1068;52.460;13.528;2023-08-21T07:05:59;7.60;;;6.30;;
2123;SDS011;1068;52.460;13.528;2023-08-21T07:08:29;6.90;;;6.40;;
2123;SDS011;1068;52.460;13.528;2023-08-21T07:10:56;6.80;;;6.30;;
2123;SDS011;1068;52.460;13.528;2023-08-21T07:13:23;6.17;;;5.77;;
2123;SDS011;1068;52.460;13.528;2023-08-21T07:15:52;7.90;;;7.20;;
2123;SDS011;1068;52.460;13.528;2023-08-21T07:18:19;6.57;;;6.17;;
2123;SDS011;1068;52.460;13.528;2023-08-21T07:20:46;6.57;;;6.03;;
2123;SDS011;1068;52.460;13.528;2023-08-21T07:23:13;6.90;;;6.33;;
2123;SDS011;1068;52.460;13.528;2023-08-21T07:25:42;6.53;;;6.00;;
2123;SDS011;1068;52.460;13.528;2023-08-21T07:28:11;6.80;;;6.37;;
2123;SDS011;1068;52.460;13.528;2023-08-21T07:30:38;6.73;;;6.13;;
2123;SDS011;1068;52.460;13.528;2023-08-21T07:33:06;6.63;;;6.17;;
2123;SDS011;1068;52.460;13.528;2023-08-21T07:35:33;8.20;;;6.10;;
2123;SDS011;1068;52.460;13.528;2023-08-21T07:38:01;7.60;;;6.90;;
2123;SDS011;1068;52.460;13.528;2023-08-21T07:40:28;7.30;;;6.70;;
2123;SDS011;1068;52.460;13.528;2023-08-21T07:42:56;7.37;;;6.67;;
2123;SDS011;1068;52.460;13.528;2023-08-21T07:45:23;7.57;;;6.87;;
2123;SDS011;1068;52.460;13.528;2023-08-21T07:47:50;8.10;;;7.50;;
2123;SDS011;1068;52.460;13.528;2023-08-21T07:50:17;7.70;;;7.03;;
2123;SDS011;1068;52.460;13.528;2023-08-21T07:52:44;8.30;;;7.70;;
2123;SDS011;1068;52.460;13.528;2023-08-21T07:55:12;9.70;;;7.47;;
2123;SDS011;1068;52.460;13.528;2023-08-21T07:57:39;7.80;;;7.20;;
2123;SDS011;1068;52.460;13.528;2023-08-21T08:00:07;8.97;;;7.00;;
2123;SDS011;1068;52.460;13.528;2023-08-21T08:02:35;8.83;;;8.13;;
2123;SDS011;1068;52.460;13.528;2023-08-21T08:05:02;8.30;;;7.70;;
2123;SDS011;1068;52.460;13.528;2023-08-21T08:07:29;8.20;;;7.47;;
2123;SDS011;1068;52.460;13.528;2023-08-21T08:09:56;12.40;;;8.20;;
2123;SDS011;1068;52.460;13.528;2023-08-21T08:12:22;7.30;;;6.60;;
2123;SDS011;1068;52.460;13.528;2023-08-21T08:14:50;8.10;;;7.40;;
2123;SDS011;1068;52.460;13.528;2023-08-21T08:17:18;7.23;;;6.63;;
2123;SDS011;1068;52.460;13.528;2023-08-21T08:19:45;7.00;;;6.40;;
2123;SDS011;1068;52.460;13.528;2023-08-21T08:22:11;7.97;;;7.27;;
2123;SDS011;1068;52.460;13.528;2023-08-21T08:24:38;7.57;;;6.97;;
2123;SDS011;1068;52.460;13.528;2023-08-21T08:27:06;8.03;;;7.43;;
2123;SDS011;1068;52.460;13.528;2023-08-21T08:29:33;6.77;;;6.27;;
2123;SDS011;1068;52.460;13.528;2023-08-21T08:32:00;6.30;;;5.80;;
2123;SDS011;1068;52.460;13.528;2023-08-21T08:34:28;5.80;;;5.40;;
2123;SDS011;1068;52.460;13.528;2023-08-21T08:36:55;7.90;;;5.67;;
2123;SDS011;1068;52.460;13.528;2023-08-21T08:39:22;5.20;;;4.80;;
2123;SDS011;1068;52.460;13.528;2023-08-21T08:41:50;5.43;;;4.80;;
2123;SDS011;1068;52.460;13.528;2023-08-21T08:44:20;7.50;;;6.80;;
2123;SDS011;1068;52.460;13.528;2023-08-21T08:46:49;5.40;;;4.90;;
2123;SDS011;1068;52.460;13.528;2023-08-21T08:49:16;4.77;;;4.37;;
2123;SDS011;1068;52.460;13.528;2023-08-21T08:51:45;5.90;;;5.30;;
2123;SDS011;1068;52.460;13.528;2023-08-21T08:54:13;6.30;;;5.50;;
2123;SDS011;1068;52.460;13.528;2023-08-21T08:56:40;7.87;;;5.27;;
2123;SDS011;1068;52.460;13.528;2023-08-21T08:59:07;4.93;;;4.57;;
2123;SDS011;1068;52.460;13.528;2023-08-21T09:01:34;4.17;;;3.57;;
2123;SDS011;1068;52.460;13.528;2023-08-21T09:04:02;5.10;;;3.63;;
2123;SDS011;1068;52.460;13.528;2023-08-21T09:06:29;4.10;;;3.70;;
2123;SDS011;1068;52.460;13.528;2023-08-21T09:08:57;4.13;;;3.80;;
2123;SDS011;1068;52.460;13.528;2023-08-21T09:11:24;4.80;;;3.30;;
2123;SDS011;1068;52.460;13.528;2023-08-21T09:13:53;3.30;;;3.00;;
2123;SDS011;1068;52.460;13.528;2023-08-21T09:16:21;4.30;;;3.20;;
2123;SDS011;1068;52.460;13.528;2023-08-21T09:18:48;4.63;;;3.30;;
2123;SDS011;1068;52.460;13.528;2023-08-21T09:21:16;4.87;;;3.40;;
2123;SDS011;1068;52.460;13.528;2023-08-21T09:23:43;2.80;;;2.33;;
2123;SDS011;1068;52.460;13.528;2023-08-21T09:26:12;3.17;;;2.47;;
2123;SDS011;1068;52.460;13.528;2023-08-21T09:28:45;3.13;;;2.93;;
2123;SDS011;1068;52.460;13.528;2023-08-21T09:31:12;3.40;;;2.93;;
2123;SDS011;1068;52.460;13.528;2023-08-21T09:33:39;4.00;;;3.10;;
2123;SDS011;1068;52.460;13.528;2023-08-21T09:36:06;3.33;;;3.03;;
2123;SDS011;1068;52.460;13.528;2023-08-21T09:38:34;3.50;;;2.33;;
2123;SDS011;1068;52.460;13.528;2023-08-21T09:41:01;2.63;;;2.43;;
2123;SDS011;1068;52.460;13.528;2023-08-21T09:43:29;3.47;;;3.17;;
2123;SDS011;1068;52.460;13.528;2023-08-21T09:45:56;4.60;;;2.77;;
2123;SDS011;1068;52.460;13.528;2023-08-21T09:48:23;3.50;;;2.40;;
2123;SDS011;1068;52.460;13.528;2023-08-21T09:50:51;2.93;;;2.63;;
2123;SDS011;1068;52.460;13.528;2023-08-21T09:53:19;2.47;;;2.10;;
2123;SDS011;1068;52.460;13.528;2023-08-21T09:55:47;2.73;;;2.37;;
2123;SDS011;1068;52.460;13.528;2023-08-21T09:58:14;3.00;;;2.43;;
2123;SDS011;1068;52.460;13.528;2023-08-21T10:00:43;2.60;;;2.37;;
2123;SDS011;1068;52.460;13.528;2023-08-21T10:03:10;4.70;;;2.30;;
2123;SDS011;1068;52.460;13.528;2023-08-21T10:05:39;2.50;;;2.20;;
2123;SDS011;1068;52.460;13.528;2023-08-21T10:08:07;3.30;;;3.03;;
2123;SDS011;1068;52.460;13.528;2023-08-21T10:10:34;2.80;;;1.97;;
2123;SDS011;1068;52.460;13.528;2023-08-21T10:13:01;4.00;;;1.70;;
2123;SDS011;1068;52.460;13.528;2023-08-21T10:15:29;3.57;;;2.63;;
2123;SDS011;1068;52.460;13.528;2023-08-21T10:17:58;2.67;;;2.00;;
2123;SDS011;1068;52.460;13.528;2023-08-21T10:20:43;1.97;;;1.80;;
2123;SDS011;1068;52.460;13.528;2023-08-21T10:23:10;2.00;;;1.90;;
2123;SDS011;1068;52.460;13.528;2023-08-21T10:25:53;2.10;;;1.90;;
2123;SDS011;1068;52.460;13.528;2023-08-21T10:28:21;3.53;;;1.43;;
2123;SDS011;1068;52.460;13.528;2023-08-21T10:30:48;1.97;;;1.20;;
2123;SDS011;1068;52.460;13.528;2023-08-21T10:33:16;1.23;;;1.10;;
2123;SDS011;1068;52.460;13.528;2023-08-21T10:35:44;3.23;;;1.50;;
2123;SDS011;1068;52.460;13.528;2023-08-21T10:38:12;2.13;;;1.53;;
2123;SDS011;1068;52.460;13.528;2023-08-21T10:40:40;2.50;;;1.40;;
2123;SDS011;1068;52.460;13.528;2023-08-21T10:43:36;2.30;;;1.37;;
2123;SDS011;1068;52.460;13.528;2023-08-21T10:46:03;2.87;;;1.83;;
2123;SDS011;1068;52.460;13.528;2023-08-21T10:48:31;2.70;;;1.60;;
2123;SDS011;1068;52.460;13.528;2023-08-21T10:50:59;2.40;;;1.50;;
2123;SDS011;1068;52.460;13.528;2023-08-21T10:53:28;2.57;;;1.43;;
2123;SDS011;1068;52.460;13.528;2023-08-21T10:55:55;1.10;;;1.00;;
2123;SDS011;1068;52.460;13.528;2023-08-21T10:58:22;2.33;;;1.33;;
2123;SDS011;1068;52.460;13.528;2023-08-21T11:00:55;1.30;;;1.03;;
2123;SDS011;1068;52.460;13.528;2023-08-21T11:03:22;1.63;;;1.00;;
2123;SDS011;1068;52.460;13.528;2023-08-21T11:06:01;1.87;;;1.10;;
2123;SDS011;1068;52.460;13.528;2023-08-21T11:08:28;3.13;;;1.70;;
2123;SDS011;1068;52.460;13.528;2023-08-21T11:10:55;1.10;;;0.90;;
2123;SDS011;1068;52.460;13.528;2023-08-21T11:13:23;2.23;;;1.07;;
2123;SDS011;1068;52.460;13.528;2023-08-21T11:15:57;2.67;;;1.40;;
2123;SDS011;1068;52.460;13.528;2023-08-21T11:18:29;3.13;;;1.50;;
2123;SDS011;1068;52.460;13.528;2023-08-21T11:21:04;1.13;;;0.97;;
2123;SDS011;1068;52.460;13.528;2023-08-21T11:23:31;1.23;;;1.10;;
2123;SDS011;1068;52.460;13.528;2023-08-21T11:25:59;2.23;;;1.30;;
2123;SDS011;1068;52.460;13.528;2023-08-21T11:28:25;2.87;;;1.57;;
2123;SDS011;1068;52.460;13.528;2023-08-21T11:30:54;3.00;;;1.40;;
2123;SDS011;1068;52.460;13.528;2023-08-21T11:33:21;1.07;;;0.97;;
2123;SDS011;1068;52.460;13.528;2023-08-21T11:35:48;1.53;;;1.17;;
2123;SDS011;1068;52.460;13.528;2023-08-21T11:38:18;1.77;;;1.20;;
2123;SDS011;1068;52.460;13.528;2023-08-21T11:40:52;1.77;;;0.90;;
2123;SDS011;1068;52.460;13.528;2023-08-21T11:43:19;1.13;;;1.00;;
2123;SDS011;1068;52.460;13.528;2023-08-21T11:45:46;1.30;;;1.10;;
2123;SDS011;1068;52.460;13.528;2023-08-21T11:48:13;1.97;;;1.50;;
2123;SDS011;1068;52.460;13.528;2023-08-21T11:50:40;2.77;;;1.30;;
2123;SDS011;1068;52.460;13.528;2023-08-21T11:53:07;1.23;;;1.03;;
2123;SDS011;1068;52.460;13.528;2023-08-21T11:55:37;2.27;;;1.27;;
2123;SDS011;1068;52.460;13.528;2023-08-21T11:58:05;3.70;;;1.03;;
2123;SDS011;1068;52.460;13.528;2023-08-21T12:00:32;1.47;;;1.37;;
2123;SDS011;1068;52.460;13.528;2023-08-21T12:03:00;2.60;;;0.90;;
2123;SDS011;1068;52.460;13.528;2023-08-21T12:05:28;5.17;;;1.37;;
2123;SDS011;1068;52.460;13.528;2023-08-21T12:07:55;2.43;;;1.67;;
2123;SDS011;1068;52.460;13.528;2023-08-21T12:10:23;1.07;;;0.90;;
2123;SDS011;1068;52.460;13.528;2023-08-21T12:12:51;3.00;;;1.40;;
2123;SDS011;1068;52.460;13.528;2023-08-21T12:15:18;2.43;;;1.30;;
2123;SDS011;1068;52.460;13.528;2023-08-21T12:17:45;2.20;;;1.20;;
2123;SDS011;1068;52.460;13.528;2023-08-21T12:20:12;1.87;;;1.13;;
2123;SDS011;1068;52.460;13.528;2023-08-21T12:22:39;2.87;;;0.90;;
2123;SDS011;1068;52.460;13.528;2023-08-21T12:25:07;2.03;;;1.60;;
2123;SDS011;1068;52.460;13.528;2023-08-21T12:27:34;1.80;;;1.47;;
2123;SDS011;1068;52.460;13.528;2023-08-21T12:30:03;2.17;;;1.00;;
2123;SDS011;1068;52.460;13.528;2023-08-21T12:32:30;2.83;;;1.27;;
2123;SDS011;1068;52.460;13.528;2023-08-21T12:34:57;1.23;;;1.10;;
2123;SDS011;1068;52.460;13.528;2023-08-21T12:37:24;1.20;;;1.10;;
2123;SDS011;1068;52.460;13.528;2023-08-21T12:39:51;1.10;;;0.90;;
2123;SDS011;1068;52.460;13.528;2023-08-21T12:42:18;1.40;;;1.00;;
2123;SDS011;1068;52.460;13.528;2023-08-21T12:44:45;2.00;;;1.30;;
2123;SDS011;1068;52.460;13.528;2023-08-21T12:47:13;1.90;;;1.10;;
2123;SDS011;1068;52.460;13.528;2023-08-21T12:49:40;1.33;;;1.00;;
2123;SDS011;1068;52.460;13.528;2023-08-21T12:52:07;1.93;;;1.00;;
2123;SDS011;1068;52.460;13.528;2023-08-21T12:54:34;1.63;;;1.00;;
2123;SDS011;1068;52.460;13.528;2023-08-21T12:57:01;1.90;;;0.87;;
2123;SDS011;1068;52.460;13.528;2023-08-21T12:59:28;2.67;;;1.03;;
2123;SDS011;1068;52.460;13.528;2023-08-21T13:01:55;1.90;;;1.00;;
2123;SDS011;1068;52.460;13.528;2023-08-21T13:04:23;1.50;;;0.87;;
2123;SDS011;1068;52.460;13.528;2023-08-21T13:06:50;2.37;;;0.90;;
2123;SDS011;1068;52.460;13.528;2023-08-21T13:09:17;1.20;;;1.00;;
2123;SDS011;1068;52.460;13.528;2023-08-21T13:11:44;1.20;;;0.80;;
2123;SDS011;1068;52.460;13.528;2023-08-21T13:14:11;1.33;;;0.90;;
2123;SDS011;1068;52.460;13.528;2023-08-21T13:16:38;1.27;;;0.90;;
2123;SDS011;1068;52.460;13.528;2023-08-21T13:19:05;1.10;;;1.00;;
2123;SDS011;1068;52.460;13.528;2023-08-21T13:21:33;2.13;;;1.17;;
2123;SDS011;1068;52.460;13.528;2023-08-21T13:24:00;4.40;;;1.20;;
2123;SDS011;1068;52.460;13.528;2023-08-21T13:26:27;1.70;;;1.20;;
2123;SDS011;1068;52.460;13.528;2023-08-21T13:28:54;2.20;;;1.30;;
2123;SDS011;1068;52.460;13.528;2023-08-21T13:31:21;3.00;;;1.00;;
2123;SDS011;1068;52.460;13.528;2023-08-21T13:33:49;1.87;;;1.17;;
2123;SDS011;1068;52.460;13.528;2023-08-21T13:36:16;1.37;;;1.00;;
2123;SDS011;1068;52.460;13.528;2023-08-21T13:38:46;2.13;;;1.03;;
2123;SDS011;1068;52.460;13.528;2023-08-21T13:41:13;1.40;;;1.20;;
2123;SDS011;1068;52.460;13.528;2023-08-21T13:43:40;4.50;;;1.20;;
2123;SDS011;1068;52.460;13.528;2023-08-21T13:46:07;1.50;;;1.20;;
2123;SDS011;1068;52.460;13.528;2023-08-21T13:48:34;3.00;;;1.53;;
2123;SDS011;1068;52.460;13.528;2023-08-21T13:51:01;2.60;;;1.00;;
2123;SDS011;1068;52.460;13.528;2023-08-21T13:53:28;2.87;;;0.90;;
2123;SDS011;1068;52.460;13.528;2023-08-21T13:55:56;1.87;;;1.10;;
2123;SDS011;1068;52.460;13.528;2023-08-21T13:58:23;1.50;;;0.90;;
2123;SDS011;1068;52.460;13.528;2023-08-21T14:00:50;4.13;;;1.03;;
2123;SDS011;1068;52.460;13.528;2023-08-21T14:03:17;1.70;;;1.10;;
2123;SDS011;1068;52.460;13.528;2023-08-21T14:05:44;2.07;;;0.97;;
2123;SDS011;1068;52.460;13.528;2023-08-21T14:08:11;1.40;;;0.90;;
2123;SDS011;1068;52.460;13.528;2023-08-21T14:10:38;1.60;;;0.93;;
2123;SDS011;1068;52.460;13.528;2023-08-21T14:13:06;4.00;;;1.10;;
2123;SDS011;1068;52.460;13.528;2023-08-21T14:15:33;1.40;;;1.00;;
2123;SDS011;1068;52.460;13.528;2023-08-21T14:18:00;1.03;;;0.87;;
2123;SDS011;1068;52.460;13.528;2023-08-21T14:20:28;2.40;;;1.40;;
2123;SDS011;1068;52.460;13.528;2023-08-21T14:22:55;2.17;;;1.10;;
2123;SDS011;1068;52.460;13.528;2023-08-21T14:25:22;2.10;;;1.10;;
2123;SDS011;1068;52.460;13.528;2023-08-21T14:27:49;1.60;;;0.80;;
2123;SDS011;1068;52.460;13.528;2023-08-21T14:30:17;1.77;;;1.20;;
2123;SDS011;1068;52.460;13.528;2023-08-21T14:32:44;2.20;;;1.17;;
2123;SDS011;1068;52.460;13.528;2023-08-21T14:35:11;1.40;;;1.03;;
2123;SDS011;1068;52.460;13.528;2023-08-21T14:37:38;1.20;;;0.90;;
2123;SDS011;1068;52.460;13.528;2023-08-21T14:40:06;2.30;;;1.03;;
2123;SDS011;1068;52.460;13.528;2023-08-21T14:42:34;1.83;;;1.10;;
2123;SDS011;1068;52.460;13.528;2023-08-21T14:45:01;1.80;;;1.10;;
2123;SDS011;1068;52.460;13.528;2023-08-21T14:47:30;1.03;;;0.93;;
2123;SDS011;1068;52.460;13.528;2023-08-21T14:49:57;2.43;;;1.10;;
2123;SDS011;1068;52.460;13.528;2023-08-21T14:52:24;1.73;;;1.00;;
2123;SDS011;1068;52.460;13.528;2023-08-21T14:54:52;1.83;;;1.03;;
2123;SDS011;1068;52.460;13.528;2023-08-21T14:57:19;2.27;;;1.20;;
2123;SDS011;1068;52.460;13.528;2023-08-21T14:59:46;2.70;;;2.00;;
2123;SDS011;1068;52.460;13.528;2023-08-21T15:02:13;1.90;;;1.10;;